Time;durP1;ratioP1;P1;durP2;ratioP2;P2;SDS_P1;SDS_P2;PMS_P1;PMS_P2;Temp;Humidity;BMP_temperature;BMP_pressure;BME280_temperature;BME280_humidity;BME280_pressure;Samples;Min_cycle;Max_cycle;Signal;HPM_P1;HPM_P2
2022/08/23 00:01:49;;;;;;;15.70;11.08;;;;;;;17.95;100.00;100105.14;2809695;82;21046;-90
2022/08/23 00:05:50;;;;;;;13.45;12.18;;;;;;;18.03;100.00;100101.59;2825159;82;21050;-88
2022/08/23 00:09:51;;;;;;;12.15;10.03;;;;;;;18.03;100.00;100094.04;2873782;80;21586;-89
2022/08/23 00:13:53;;;;;;;12.05;10.65;;;;;;;17.94;100.00;100094.05;2899417;80;21179;-89
2022/08/23 00:17:54;;;;;;;15.48;12.40;;;;;;;17.97;100.00;100083.45;2844625;80;20987;-90
2022/08/23 00:21:56;;;;;;;11.28;10.03;;;;;;;17.93;100.00;100088.34;2889727;80;21522;-90
2022/08/23 00:26:02;;;;;;;15.43;10.88;;;;;;;17.96;100.00;100092.02;2866830;80;21063;-88
2022/08/23 00:30:08;;;;;;;13.08;10.28;;;;;;;18.01;100.00;100092.01;2896456;80;21035;-90
2022/08/23 00:34:09;;;;;;;13.13;10.78;;;;;;;18.06;100.00;100090.98;2890632;80;21021;-88
2022/08/23 00:38:11;;;;;;;13.15;9.55;;;;;;;18.15;100.00;100088.55;2894803;80;21067;-90
2022/08/23 00:51:37;;;;;;;14.00;10.80;;;;;;;18.37;100.00;100086.86;2913420;80;21058;-88
2022/08/23 00:55:42;;;;;;;12.53;9.55;;;;;;;18.38;100.00;100091.22;2917741;80;21734;-89
2022/08/23 00:59:43;;;;;;;12.25;8.95;;;;;;;18.43;100.00;100088.48;2902730;80;21446;-90
2022/08/23 01:03:49;;;;;;;11.08;7.85;;;;;;;18.48;100.00;100090.97;2885175;82;21531;-89
2022/08/23 01:07:57;;;;;;;9.43;8.23;;;;;;;18.53;100.00;100091.77;2853494;82;21866;-90
2022/08/23 01:12:10;;;;;;;8.60;7.80;;;;;;;18.53;100.00;100083.69;2789975;83;21057;-89
2022/08/23 01:16:20;;;;;;;9.03;8.15;;;;;;;18.54;100.00;100075.41;2819190;83;21074;-90
2022/08/23 01:20:23;;;;;;;13.35;8.68;;;;;;;18.61;100.00;100076.05;2834132;81;21049;-90
2022/08/23 01:24:26;;;;;;;8.40;7.67;;;;;;;18.62;100.00;100078.53;2834217;81;21097;-89
2022/08/23 01:28:27;;;;;;;8.05;7.10;;;;;;;18.62;100.00;100072.33;2859311;81;21053;-89
2022/08/23 01:32:28;;;;;;;9.33;8.43;;;;;;;18.60;100.00;100075.19;2852808;81;21042;-89
2022/08/23 01:36:31;;;;;;;9.55;8.45;;;;;;;18.65;100.00;100075.99;2826306;81;21032;-89
2022/08/23 01:40:35;;;;;;;8.58;6.80;;;;;;;18.65;100.00;100076.81;2825242;81;21052;-86
2022/08/23 01:44:36;;;;;;;9.23;6.60;;;;;;;18.64;100.00;100075.14;2856591;81;21050;-90
2022/08/23 01:48:38;;;;;;;6.85;6.25;;;;;;;18.61;100.00;100075.52;2818680;83;21548;-89
2022/08/23 01:52:41;;;;;;;8.50;7.60;;;;;;;18.56;100.00;100073.89;2737352;86;21062;-89
2022/08/23 01:56:43;;;;;;;9.28;7.08;;;;;;;18.61;100.00;100075.52;2747199;86;21094;-89
2022/08/23 02:00:44;;;;;;;10.95;8.03;;;;;;;18.67;100.00;100074.80;2738494;85;20971;-88
2022/08/23 02:04:46;;;;;;;6.47;5.85;;;;;;;18.66;100.00;100081.18;2752449;83;21093;-89
2022/08/23 02:09:03;;;;;;;8.38;7.58;;;;;;;18.59;100.00;100081.59;2738486;83;21039;-88
2022/08/23 02:13:04;;;;;;;10.93;7.60;;;;;;;18.64;100.00;100098.04;2806702;83;21111;-89
2022/08/23 02:17:05;;;;;;;10.90;9.03;;;;;;;18.67;100.00;100099.54;2809502;83;21002;-88
2022/08/23 02:21:09;;;;;;;9.65;8.68;;;;;;;18.64;100.00;100097.22;2799187;83;21055;-88
2022/08/23 02:25:10;;;;;;;12.20;9.10;;;;;;;18.68;100.00;100102.06;2812209;82;21032;-87
2022/08/23 02:29:13;;;;;;;9.40;8.45;;;;;;;18.68;100.00;100097.17;2770775;84;21082;-88
2022/08/23 02:33:15;;;;;;;9.05;8.25;;;;;;;18.72;100.00;100104.38;2815959;82;21024;-89
2022/08/23 02:37:16;;;;;;;11.03;7.97;;;;;;;18.75;100.00;100105.36;2782558;85;22178;-89
2022/08/23 02:41:18;;;;;;;8.98;6.05;;;;;;;18.79;100.00;100106.16;2799798;83;21072;-89
2022/08/23 02:45:20;;;;;;;12.30;6.75;;;;;;;18.74;100.00;100112.59;2815308;82;21066;-89
2022/08/23 02:49:21;;;;;;;8.05;6.80;;;;;;;18.78;100.00;100115.77;2777844;83;21031;-87
2022/08/23 02:53:22;;;;;;;7.62;6.30;;;;;;;18.76;100.00;100124.55;2790878;83;21019;-88
2022/08/23 02:57:24;;;;;;;10.28;8.05;;;;;;;18.80;100.00;100131.23;2819167;84;21084;-87
2022/08/23 03:01:34;;;;;;;11.15;8.75;;;;;;;18.86;100.00;100137.22;2810764;84;21042;-90
2022/08/23 03:05:35;;;;;;;11.40;9.75;;;;;;;18.93;100.00;100126.55;2797478;83;21538;-91
2022/08/23 03:09:36;;;;;;;7.75;6.17;;;;;;;19.10;100.00;100135.34;2808340;82;21094;-90
2022/08/23 03:13:39;;;;;;;8.03;6.15;;;;;;;19.21;100.00;100131.34;2777110;84;21090;-85
2022/08/23 03:17:41;;;;;;;7.83;5.75;;;;;;;19.24;100.00;100122.88;2831141;83;20986;-88
2022/08/23 03:21:42;;;;;;;7.33;6.25;;;;;;;19.16;100.00;100104.08;2826385;83;21015;-89
2022/08/23 03:25:43;;;;;;;7.22;5.62;;;;;;;19.08;100.00;100102.34;2726170;84;21688;-85
2022/08/23 03:29:45;;;;;;;8.00;5.95;;;;;;;18.91;100.00;100098.95;2742062;84;21073;-86
2022/08/23 03:33:46;;;;;;;7.78;6.83;;;;;;;18.81;100.00;100101.42;2763659;84;21071;-86
2022/08/23 03:37:47;;;;;;;6.85;5.70;;;;;;;18.68;100.00;100095.33;2782678;84;21574;-86
2022/08/23 03:41:48;;;;;;;6.42;5.45;;;;;;;18.64;100.00;100098.04;2763726;82;21082;-86
2022/08/23 03:45:49;;;;;;;7.08;6.37;;;;;;;18.60;100.00;100103.47;2809804;82;21045;-86
2022/08/23 03:49:50;;;;;;;8.88;6.30;;;;;;;18.55;100.00;100101.32;2763523;83;21038;-86
2022/08/23 03:53:52;;;;;;;7.33;5.78;;;;;;;18.54;100.00;100101.52;2837401;81;21065;-87
2022/08/23 03:57:54;;;;;;;9.50;6.30;;;;;;;18.48;100.00;100098.22;2821554;83;21038;-87
2022/08/23 04:01:55;;;;;;;7.95;7.25;;;;;;;18.47;100.00;100104.59;2786952;82;21895;-85
2022/08/23 04:05:56;;;;;;;7.85;6.83;;;;;;;18.46;100.00;100108.31;2784847;84;21058;-85
2022/08/23 04:09:57;;;;;;;8.10;7.25;;;;;;;18.47;100.00;100109.48;2795180;83;21051;-84
2022/08/23 04:13:58;;;;;;;10.63;7.83;;;;;;;18.50;100.00;100101.04;2822288;83;21077;-86
2022/08/23 04:18:00;;;;;;;9.00;7.45;;;;;;;18.49;100.00;100093.16;2780005;84;21063;-87
2022/08/23 04:22:02;;;;;;;7.60;6.30;;;;;;;18.48;100.00;100100.91;2772652;85;21042;-86
2022/08/23 04:26:05;;;;;;;14.70;8.43;;;;;;;18.43;100.00;100097.41;2789921;83;21086;-86
2022/08/23 04:30:07;;;;;;;9.10;7.30;;;;;;;18.42;100.00;100101.13;2787384;83;21055;-85
2022/08/23 04:34:08;;;;;;;13.05;9.58;;;;;;;18.39;100.00;100103.66;2775156;83;21012;-86
2022/08/23 04:38:10;;;;;;;8.48;7.53;;;;;;;18.44;100.00;100107.66;2827464;83;21151;-85
2022/08/23 04:42:17;;;;;;;7.92;7.10;;;;;;;18.38;100.00;100114.11;2818621;83;21082;-86
2022/08/23 04:46:19;;;;;;;8.15;7.25;;;;;;;18.40;100.00;100124.19;2821002;83;21717;-85
2022/08/23 04:50:20;;;;;;;8.55;7.67;;;;;;;18.43;100.00;100127.53;2789467;83;21040;-87
2022/08/23 04:54:22;;;;;;;8.63;7.85;;;;;;;18.44;100.00;100123.81;2836291;83;21015;-87
2022/08/23 04:58:23;;;;;;;8.33;7.65;;;;;;;18.42;100.00;100119.98;2758293;83;21053;-86
2022/08/23 05:02:25;;;;;;;7.92;7.22;;;;;;;18.43;100.00;100111.37;2795687;85;21641;-86
2022/08/23 05:06:27;;;;;;;8.75;7.92;;;;;;;18.46;100.00;100111.00;2797052;85;21479;-86
2022/08/23 05:10:28;;;;;;;10.85;8.90;;;;;;;18.46;100.00;100105.62;2795275;84;21021;-86
2022/08/23 05:14:30;;;;;;;9.70;8.83;;;;;;;18.47;100.00;100097.86;2814767;82;21039;-85
2022/08/23 05:18:32;;;;;;;8.28;7.47;;;;;;;18.42;100.00;100089.01;2801535;81;21031;-85
2022/08/23 05:22:39;;;;;;;9.75;8.75;;;;;;;18.44;100.00;100092.84;2861683;80;21031;-85
2022/08/23 05:26:40;;;;;;;8.25;7.47;;;;;;;18.41;100.00;100091.37;2876638;79;21028;-85
2022/08/23 05:30:42;;;;;;;10.38;9.28;;;;;;;18.50;100.00;100098.88;2897436;79;21039;-85
2022/08/23 05:34:43;;;;;;;8.48;7.42;;;;;;;18.49;100.00;100109.32;2880276;79;20993;-85
2022/08/23 05:38:48;;;;;;;8.85;8.05;;;;;;;18.56;100.00;100125.06;2864267;80;20970;-86
2022/08/23 05:42:49;;;;;;;9.18;8.28;;;;;;;18.61;100.00;100132.61;2885732;79;21020;-85
2022/08/23 05:46:50;;;;;;;10.18;9.18;;;;;;;18.68;100.00;100137.08;2870339;81;20988;-85
2022/08/23 05:50:52;;;;;;;9.70;8.75;;;;;;;18.78;100.00;100140.02;2855607;79;21025;-85
2022/08/23 05:54:54;;;;;;;9.23;8.43;;;;;;;18.86;100.00;100152.57;2856381;79;21524;-84
2022/08/23 05:58:59;;;;;;;8.60;7.80;;;;;;;18.96;100.00;100168.80;2861139;79;21025;-84
2022/08/23 06:03:01;;;;;;;11.00;9.90;;;;;;;19.04;100.00;100171.11;2920529;80;21016;-85
2022/08/23 06:07:04;;;;;;;18.80;17.07;;;;;;;19.11;100.00;100183.66;2856271;79;21093;-86
2022/08/23 06:11:14;;;;;;;15.10;13.43;;;;;;;19.22;100.00;100189.64;2877231;79;21053;-86
2022/08/23 06:15:15;;;;;;;15.63;12.73;;;;;;;19.21;100.00;100189.31;2930213;80;21032;-84
2022/08/23 06:19:17;;;;;;;10.50;9.50;;;;;;;19.32;100.00;100192.06;2893098;78;21001;-86
2022/08/23 06:23:18;;;;;;;10.35;9.15;;;;;;;19.36;100.00;100195.55;2884759;78;21079;-86
2022/08/23 06:27:19;;;;;;;9.13;8.23;;;;;;;19.42;100.00;100196.64;2922967;80;21095;-86
2022/08/23 06:35:43;;;;;;;9.85;8.85;;;;;;;19.57;100.00;100197.16;2928494;80;20981;-87
2022/08/23 06:39:44;;;;;;;9.20;8.28;;;;;;;19.62;100.00;100200.97;2862794;80;20974;-86
2022/08/23 06:43:45;;;;;;;7.50;6.80;;;;;;;19.66;100.00;100202.27;2879182;78;21571;-86
2022/08/23 06:47:47;;;;;;;9.25;8.35;;;;;;;19.55;100.00;100191.44;2940087;80;21004;-86
2022/08/23 06:51:51;;;;;;;10.88;8.98;;;;;;;19.46;100.00;100197.97;2876923;80;20969;-86
2022/08/23 06:55:53;;;;;;;9.33;8.53;;;;;;;19.39;100.00;100191.12;2884901;79;20982;-85
2022/08/23 06:59:55;;;;;;;10.15;9.23;;;;;;;19.44;100.00;100188.38;2879885;80;21072;-85
2022/08/23 07:03:58;;;;;;;8.00;6.95;;;;;;;19.34;100.00;100191.36;2823252;81;21077;-85
2022/08/23 07:07:59;;;;;;;9.38;8.48;;;;;;;19.22;100.00;100192.33;2832753;83;21074;-85
2022/08/23 07:12:01;;;;;;;8.08;7.28;;;;;;;19.18;100.00;100194.55;2803880;83;21033;-85
2022/08/23 07:16:03;;;;;;;6.05;5.55;;;;;;;19.18;100.00;100199.13;2803403;83;21036;-85
2022/08/23 07:20:05;;;;;;;7.85;7.15;;;;;;;19.19;100.00;100197.58;2826595;83;21052;-85
2022/08/23 07:24:07;;;;;;;7.60;6.83;;;;;;;19.32;100.00;100201.50;2775893;84;21084;-84
2022/08/23 07:28:10;;;;;;;7.03;6.40;;;;;;;19.31;100.00;100204.69;2840771;82;21028;-85
2022/08/23 07:32:12;;;;;;;5.37;4.87;;;;;;;19.32;100.00;100208.23;2811543;82;21088;-85
2022/08/23 07:36:17;;;;;;;4.83;4.42;;;;;;;19.23;100.00;100209.66;2807665;82;21015;-85
2022/08/23 07:40:18;;;;;;;4.92;4.53;;;;;;;19.16;100.00;100213.27;2810289;83;21005;-85
2022/08/23 07:44:20;;;;;;;6.12;4.33;;;;;;;19.08;100.00;100211.52;2837808;83;21135;-85
2022/08/23 07:48:21;;;;;;;4.33;3.92;;;;;;;19.00;100.00;100222.36;2823093;83;21064;-84
2022/08/23 07:52:22;;;;;;;6.83;5.33;;;;;;;18.97;100.00;100228.95;2838900;83;20989;-85
2022/08/23 07:56:23;;;;;;;4.62;4.22;;;;;;;18.92;100.00;100230.83;2832984;83;21033;-85
2022/08/23 08:00:26;;;;;;;8.70;7.80;;;;;;;19.07;100.00;100234.93;2811664;83;21017;-85
2022/08/23 08:04:27;;;;;;;6.00;5.40;;;;;;;19.26;100.00;100232.23;2838450;83;21057;-85
2022/08/23 08:08:29;;;;;;;6.95;6.30;;;;;;;19.16;100.00;100226.75;2832875;83;21072;-84
2022/08/23 08:12:31;;;;;;;7.90;6.55;;;;;;;19.31;100.00;100230.83;2875733;82;21044;-86
2022/08/23 08:16:38;;;;;;;6.03;5.50;;;;;;;19.39;100.00;100232.94;2883577;80;21036;-84
2022/08/23 08:20:43;;;;;;;4.53;4.12;;;;;;;19.36;100.00;100231.11;2912563;79;21070;-85
2022/08/23 08:24:45;;;;;;;3.37;3.10;;;;;;;19.30;100.00;100223.77;2803293;81;21034;-84
2022/08/23 08:28:46;;;;;;;4.30;3.85;;;;;;;19.13;100.00;100211.27;2862764;81;21008;-85
2022/08/23 08:32:47;;;;;;;4.47;4.08;;;;;;;19.29;100.00;100220.75;2863967;80;21014;-85
2022/08/23 08:36:53;;;;;;;4.25;3.92;;;;;;;19.33;100.00;100228.78;2858014;82;21043;-84
2022/08/23 08:41:07;;;;;;;;;;;;;;;19.46;100.00;100237.08;2779193;82;21034;-85
2022/08/23 08:45:15;;;;;;;3.17;2.95;;;;;;;19.62;100.00;100245.98;2803511;82;20117;-86
2022/08/23 08:49:39;;;;;;;2.60;2.40;;;;;;;19.67;100.00;100250.34;2798856;82;21038;-86
2022/08/23 08:53:44;;;;;;;2.72;2.25;;;;;;;19.64;100.00;100260.13;2865412;80;21009;-86
2022/08/23 08:57:48;;;;;;;2.00;1.80;;;;;;;19.70;100.00;100271.55;2856230;80;21057;-84
2022/08/23 09:01:50;;;;;;;1.60;1.47;;;;;;;19.62;100.00;100270.27;2920278;79;21063;-83
2022/08/23 09:06:00;;;;;;;2.80;2.50;;;;;;;19.61;100.00;100276.69;2863903;79;20974;-84
2022/08/23 09:10:10;;;;;;;3.40;2.90;;;;;;;19.67;100.00;100267.34;2892193;80;21080;-83
2022/08/23 09:14:36;;;;;;;2.40;2.10;;;;;;;19.75;100.00;100270.47;2864675;80;21526;-83
2022/08/23 09:18:38;;;;;;;2.20;2.00;;;;;;;19.82;100.00;100269.20;2919244;80;21004;-83
2022/08/23 09:22:44;;;;;;;4.58;2.30;;;;;;;19.86;100.00;100279.95;2855962;79;21037;-83
2022/08/23 09:26:46;;;;;;;2.58;2.00;;;;;;;19.77;100.00;100283.25;2875624;80;20993;-83
2022/08/23 09:30:56;;;;;;;2.35;1.72;;;;;;;19.61;100.00;100281.59;2847061;80;21059;-83
2022/08/23 09:35:12;;;;;;;0.72;0.72;;;;;;;19.66;100.00;100276.99;2808542;81;21035;-84
2022/08/23 09:39:30;;;;;;;0.85;0.85;;;;;;;19.61;100.00;100274.84;2911845;79;21045;-83
2022/08/23 09:43:37;;;;;;;1.75;1.65;;;;;;;19.57;100.00;100268.15;2855720;80;21279;-84
2022/08/23 09:47:40;;;;;;;1.47;1.05;;;;;;;19.57;100.00;100268.15;2910836;79;21056;-84
2022/08/23 09:51:42;;;;;;;1.27;1.17;;;;;;;19.64;100.00;100273.12;2907857;79;21002;-84
2022/08/23 09:55:51;;;;;;;1.82;1.62;;;;;;;19.59;100.00;100276.04;2856458;80;21084;-84
2022/08/23 09:59:55;;;;;;;1.57;1.25;;;;;;;19.64;100.00;100270.91;2862151;79;20973;-85
2022/08/23 10:04:32;;;;;;;2.02;1.82;;;;;;;19.66;100.00;100272.95;2855681;80;21057;-85
2022/08/23 10:08:41;;;;;;;1.92;1.82;;;;;;;19.72;100.00;100268.14;2746578;85;21063;-85
2022/08/23 10:12:42;;;;;;;2.85;2.65;;;;;;;19.69;100.00;100267.17;2748938;85;21047;-84
2022/08/23 10:17:15;;;;;;;3.35;3.05;;;;;;;19.68;100.00;100277.11;2750154;85;21000;-85
2022/08/23 10:21:42;;;;;;;5.17;3.33;;;;;;;19.77;100.00;100271.11;2745627;85;21019;-85
2022/08/23 10:25:57;;;;;;;4.87;3.05;;;;;;;19.82;100.00;100273.25;2727553;85;20992;-85
2022/08/23 10:30:15;;;;;;;4.80;2.80;;;;;;;19.86;100.00;100284.00;2748173;85;21008;-85
2022/08/23 10:34:59;;;;;;;5.00;2.85;;;;;;;19.84;100.00;100281.47;2727839;85;21047;-85
2022/08/23 10:39:12;;;;;;;2.77;2.55;;;;;;;19.80;100.00;100280.17;2747989;85;21113;-85
2022/08/23 10:43:25;;;;;;;4.37;3.35;;;;;;;19.85;100.00;100287.72;2846794;79;21101;-85
2022/08/23 10:59:51;;;;;;;3.37;3.05;;;;;;;20.08;100.00;100294.39;2975240;76;22245;-88
2022/08/23 11:04:10;;;;;;;3.10;2.83;;;;;;;19.90;100.00;100287.17;2937673;78;21501;-88
2022/08/23 11:08:33;;;;;;;5.78;5.17;;;;;;;19.90;100.00;100284.47;2917554;80;21029;-89
2022/08/23 11:12:51;;;;;;;6.80;5.80;;;;;;;19.97;100.00;100290.31;2901675;80;21152;-88
2022/08/23 11:17:00;;;;;;;13.05;6.45;;;;;;;20.07;100.00;100294.08;2926328;80;20988;-88
2022/08/23 11:21:12;;;;;;;5.40;4.78;;;;;;;19.98;100.00;100296.53;2966080;78;21078;-88
2022/08/23 11:25:19;;;;;;;6.05;5.35;;;;;;;19.86;100.00;100300.72;2949511;79;21562;-88
2022/08/23 11:29:26;;;;;;;7.20;6.45;;;;;;;19.94;100.00;100299.29;2896090;79;21042;-89
2022/08/23 11:33:54;;;;;;;14.07;7.10;;;;;;;20.04;100.00;100304.41;2964359;79;21442;-89
2022/08/23 11:38:02;;;;;;;9.93;8.98;;;;;;;20.14;100.00;100295.48;2945261;79;21045;-89
2022/08/23 11:42:05;;;;;;;10.08;8.33;;;;;;;20.23;100.00;100292.16;2938770;79;20998;-89
2022/08/23 11:46:30;;;;;;;10.50;7.78;;;;;;;20.32;100.00;100297.79;2930038;80;21050;-89
2022/08/23 11:51:12;;;;;;;11.45;9.80;;;;;;;20.35;100.00;100298.76;2976419;78;21294;-89
2022/08/23 11:55:38;;;;;;;20.17;17.02;;;;;;;20.41;100.00;100307.44;2969310;78;21104;-89
2022/08/23 12:00:10;;;;;;;15.05;12.28;;;;;;;20.47;100.00;100306.38;3007856;77;21077;-89
2022/08/23 12:04:37;;;;;;;9.45;8.45;;;;;;;20.49;100.00;100310.55;2998455;78;21506;-89
2022/08/23 12:08:56;;;;;;;12.47;11.15;;;;;;;20.45;100.00;100320.59;2967213;78;21007;-89
2022/08/23 12:13:23;;;;;;;14.40;10.88;;;;;;;20.31;100.00;100316.88;2988851;78;21004;-89
2022/08/23 12:17:30;;;;;;;18.87;13.95;;;;;;;20.29;100.00;100308.98;2975712;78;21675;-89
2022/08/23 12:21:48;;;;;;;27.98;21.97;;;;;;;20.29;100.00;100308.98;2934327;79;21616;-89
2022/08/23 12:26:04;;;;;;;28.45;22.45;;;;;;;20.37;100.00;100310.20;2977599;78;21018;-89
2022/08/23 12:30:21;;;;;;;28.05;22.37;;;;;;;20.48;100.00;100310.75;2905536;79;20983;-89
2022/08/23 12:34:44;;;;;;;30.45;22.75;;;;;;;20.61;100.00;100309.52;2918261;79;21549;-88
2022/08/23 12:39:08;;;;;;;34.73;23.45;;;;;;;20.68;100.00;100310.45;2958365;78;20994;-89
2022/08/23 12:43:26;;;;;;;28.23;21.27;;;;;;;20.80;100.00;100316.21;2939443;79;21010;-88
2022/08/23 12:47:28;;;;;;;30.20;24.40;;;;;;;20.82;100.00;100314.65;2983053;77;21479;-88
2022/08/23 12:51:30;;;;;;;28.47;20.05;;;;;;;20.83;100.00;100306.36;2994358;77;21038;-92
2022/08/23 12:55:40;;;;;;;33.80;21.90;;;;;;;20.85;100.00;100318.84;2938362;78;21006;-91
2022/08/23 13:00:12;;;;;;;30.50;22.62;;;;;;;20.90;100.00;100313.69;2938706;80;21043;-91
2022/08/23 13:04:15;;;;;;;28.67;22.05;;;;;;;20.79;100.00;100310.95;2974487;78;21071;-92
2022/08/23 13:08:28;;;;;;;31.00;21.35;;;;;;;20.85;100.00;100309.38;2903266;80;21093;-92
2022/08/23 13:12:29;;;;;;;37.67;23.40;;;;;;;20.86;100.00;100324.07;2918532;79;21069;-91
2022/08/23 13:16:39;;;;;;;36.25;26.05;;;;;;;20.92;100.00;100319.73;2930479;80;21027;-92
2022/08/23 13:20:40;;;;;;;25.75;17.57;;;;;;;20.86;100.00;100322.72;2913996;79;21046;-92
2022/08/23 13:24:46;;;;;;;26.10;17.77;;;;;;;20.91;100.00;100314.01;2949392;78;21596;-92
2022/08/23 13:29:20;;;;;;;31.25;18.67;;;;;;;20.94;100.00;100319.88;2947280;79;21108;-94
2022/08/23 13:33:22;;;;;;;24.05;17.98;;;;;;;21.02;100.00;100317.55;2856529;81;21034;-86
2022/08/23 13:37:31;;;;;;;24.77;18.48;;;;;;;21.08;100.00;100313.25;2762178;81;21487;-90
2022/08/23 13:41:35;;;;;;;35.10;17.60;;;;;;;21.13;100.00;100310.78;2855307;80;21023;-91
2022/08/23 13:45:48;;;;;;;24.23;18.15;;;;;;;21.13;100.00;100313.48;2876318;80;21030;-88
2022/08/23 13:49:50;;;;;;;19.90;16.65;;;;;;;21.19;100.00;100309.17;2907050;80;21042;-88
2022/08/23 13:53:55;;;;;;;24.43;18.37;;;;;;;21.21;100.00;100306.58;2841743;82;21023;-91
2022/08/23 13:57:57;;;;;;;20.37;14.90;;;;;;;21.22;100.00;100308.28;2844185;81;21054;-91
2022/08/23 14:02:03;;;;;;;16.93;15.15;;;;;;;21.24;100.00;100311.62;2869016;81;21057;-91
2022/08/23 14:06:05;;;;;;;15.95;14.28;;;;;;;21.31;100.00;100309.47;2867654;81;21504;-91
2022/08/23 14:10:10;;;;;;;17.57;12.85;;;;;;;21.39;100.00;100307.45;2905875;78;21532;-91
2022/08/23 14:14:13;;;;;;;14.75;12.78;;;;;;;21.30;100.00;100311.86;2845386;79;21121;-91
2022/08/23 14:18:15;;;;;;;12.80;10.13;;;;;;;21.36;100.00;100308.36;2840874;79;21054;-90
2022/08/23 14:22:18;;;;;;;13.53;10.38;;;;;;;21.37;100.00;100308.67;2865610;81;21133;-90
2022/08/23 14:26:22;;;;;;;11.05;8.43;;;;;;;21.35;100.00;100303.48;2917890;78;21172;-91
2022/08/23 14:30:31;;;;;;;11.50;9.60;;;;;;;21.44;100.00;100305.52;2941976;78;21043;-90
2022/08/23 14:34:34;;;;;;;9.65;8.68;;;;;;;21.57;100.00;100306.62;2886914;78;21059;-85
2022/08/23 14:38:36;;;;;;;11.18;8.85;;;;;;;21.58;100.00;100309.15;2916732;79;21027;-84
2022/08/23 14:42:37;;;;;;;13.43;10.53;;;;;;;21.63;100.00;100312.63;2898240;80;21033;-86
2022/08/23 14:46:39;;;;;;;13.43;9.98;;;;;;;21.60;100.00;100307.58;2918952;79;20975;-83
2022/08/23 14:50:41;;;;;;;14.68;13.10;;;;;;;21.52;100.00;100305.36;2914670;80;21030;-83
2022/08/23 14:54:42;;;;;;;15.38;12.23;;;;;;;21.50;100.00;100302.52;2857042;80;21025;-82
2022/08/23 14:58:44;;;;;;;14.80;12.60;;;;;;;21.47;100.00;100297.01;2895107;80;21070;-86
2022/08/23 15:02:48;;;;;;;15.68;13.05;;;;;;;21.47;100.00;100297.01;2917398;81;21070;-85
2022/08/23 15:06:52;;;;;;;16.25;14.03;;;;;;;21.45;100.00;100298.23;2924934;80;21036;-84
2022/08/23 15:10:53;;;;;;;11.08;9.98;;;;;;;21.36;100.00;100302.95;2901142;80;21173;-83
2022/08/23 15:14:55;;;;;;;13.08;11.75;;;;;;;21.44;100.00;100291.14;2933785;79;21133;-84
2022/08/23 15:18:57;;;;;;;12.68;9.85;;;;;;;21.47;100.00;100303.77;2927046;79;21109;-84
2022/08/23 15:22:59;;;;;;;9.68;8.68;;;;;;;21.45;100.00;100304.98;2942778;79;21070;-84
2022/08/23 15:27:02;;;;;;;12.00;8.35;;;;;;;21.48;100.00;100299.17;2907470;80;21027;-83
2022/08/23 15:31:04;;;;;;;10.72;8.20;;;;;;;21.48;100.00;100298.67;2918301;80;21066;-84
2022/08/23 15:35:07;;;;;;;8.55;6.83;;;;;;;21.53;100.00;100309.73;2931491;80;21272;-83
2022/08/23 15:39:09;;;;;;;6.85;5.33;;;;;;;21.56;100.00;100322.05;2907563;80;21027;-83
2022/08/23 15:43:10;;;;;;;5.83;5.17;;;;;;;21.61;100.00;100322.28;2880423;79;21546;-84
2022/08/23 15:47:26;;;;;;;8.75;6.87;;;;;;;21.53;100.00;100321.91;2935409;79;21042;-84
2022/08/23 15:51:28;;;;;;;6.05;5.37;;;;;;;21.61;100.00;100325.48;2935128;79;21023;-83
2022/08/23 15:55:33;;;;;;;7.20;5.80;;;;;;;21.61;100.00;100329.05;2950882;79;21062;-83
2022/08/23 15:59:36;;;;;;;17.77;4.87;;;;;;;21.65;100.00;100323.58;2925377;79;21078;-83
2022/08/23 16:03:42;;;;;;;7.08;6.12;;;;;;;21.61;100.00;100324.98;2930420;79;21118;-82
2022/08/23 16:07:44;;;;;;;5.62;4.10;;;;;;;21.60;100.00;100322.47;2912284;79;21030;-82
2022/08/23 16:11:45;;;;;;;6.17;5.58;;;;;;;21.53;100.00;100320.56;2932207;79;21556;-83
2022/08/23 16:15:47;;;;;;;7.03;6.42;;;;;;;21.49;100.00;100319.29;2930548;79;21549;-83
2022/08/23 16:19:49;;;;;;;7.72;5.20;;;;;;;21.38;100.00;100314.41;2926446;80;20983;-83
2022/08/23 16:23:55;;;;;;;5.15;4.65;;;;;;;21.42;100.00;100324.33;2952500;80;20988;-83
2022/08/23 16:27:57;;;;;;;3.80;3.25;;;;;;;21.48;100.00;100320.33;2911714;80;21027;-83
2022/08/23 16:31:58;;;;;;;4.40;3.98;;;;;;;21.37;100.00;100326.27;2896895;79;21002;-82
2022/08/23 16:35:59;;;;;;;4.85;3.45;;;;;;;21.40;100.00;100326.72;2912013;79;20995;-84
2022/08/23 16:40:05;;;;;;;6.30;2.85;;;;;;;21.38;100.00;100326.58;2927051;80;21035;-83
2022/08/23 16:44:06;;;;;;;3.55;2.87;;;;;;;21.42;100.00;100333.80;2910190;80;21081;-84
2022/08/23 16:48:07;;;;;;;4.22;3.92;;;;;;;21.32;100.00;100340.91;2926209;79;21561;-83
2022/08/23 16:52:10;;;;;;;2.72;2.50;;;;;;;21.37;100.00;100333.88;2948840;80;21184;-83
2022/08/23 16:56:12;;;;;;;3.62;2.80;;;;;;;21.27;100.00;100337.42;2926928;79;21058;-84
2022/08/23 17:00:14;;;;;;;5.17;3.15;;;;;;;21.29;100.00;100347.53;2895847;80;21022;-84
2022/08/23 17:04:17;;;;;;;4.12;3.00;;;;;;;21.31;100.00;100345.99;2921185;80;21014;-84
2022/08/23 17:08:18;;;;;;;6.45;3.72;;;;;;;21.32;100.00;100344.95;2911516;79;21015;-84
2022/08/23 17:12:20;;;;;;;3.12;2.62;;;;;;;21.33;100.00;100343.92;2937674;79;21082;-84
2022/08/23 17:16:22;;;;;;;4.55;3.90;;;;;;;21.33;100.00;100352.05;2945671;79;21613;-84
2022/08/23 17:20:28;;;;;;;3.65;3.35;;;;;;;21.40;100.00;100350.22;2942948;79;22114;-84
2022/08/23 17:24:30;;;;;;;2.87;2.35;;;;;;;21.50;100.00;100357.99;2901874;79;21042;-84
2022/08/23 17:28:32;;;;;;;3.50;3.20;;;;;;;21.44;100.00;100351.52;2878308;80;20993;-84
2022/08/23 17:32:33;;;;;;;7.78;2.35;;;;;;;21.40;100.00;100361.89;2911525;78;21845;-84
2022/08/23 17:36:43;;;;;;;3.58;3.27;;;;;;;21.41;100.00;100368.12;2919204;79;21010;-86
2022/08/23 17:40:45;;;;;;;4.10;2.95;;;;;;;21.42;100.00;100368.47;2935585;80;21054;-85
2022/08/23 17:44:46;;;;;;;4.10;3.30;;;;;;;21.36;100.00;100367.38;2919780;80;21018;-85
2022/08/23 17:48:47;;;;;;;3.52;3.22;;;;;;;21.40;100.00;100377.27;2899903;80;21027;-85
2022/08/23 17:52:51;;;;;;;5.65;5.08;;;;;;;21.37;100.00;100381.72;2916033;80;21074;-85
2022/08/23 17:56:52;;;;;;;4.97;4.22;;;;;;;21.40;100.00;100388.09;2937838;80;21015;-85
2022/08/23 18:00:54;;;;;;;5.17;4.20;;;;;;;21.40;100.00;100401.62;2938425;79;21010;-85
2022/08/23 18:04:55;;;;;;;4.47;3.45;;;;;;;21.37;100.00;100407.42;2945851;79;21056;-85
2022/08/23 18:08:56;;;;;;;7.87;4.95;;;;;;;21.37;100.00;100405.58;2945096;80;21030;-85
2022/08/23 18:12:58;;;;;;;4.78;4.37;;;;;;;21.40;100.00;100413.30;2935154;80;21047;-85
2022/08/23 18:17:00;;;;;;;7.03;5.40;;;;;;;21.49;100.00;100414.00;2930115;78;21058;-83
2022/08/23 18:21:07;;;;;;;6.12;4.85;;;;;;;21.55;100.00;100414.56;2916139;80;21026;-84
2022/08/23 18:25:12;;;;;;;10.38;5.17;;;;;;;21.69;100.00;100418.77;2933013;79;21014;-85
2022/08/23 18:29:14;;;;;;;5.40;4.95;;;;;;;21.76;100.00;100426.41;2943541;80;21010;-84
2022/08/23 18:33:18;;;;;;;6.03;5.42;;;;;;;21.80;100.00;100429.05;2930950;79;21045;-84
2022/08/23 18:37:22;;;;;;;7.30;6.03;;;;;;;21.85;100.00;100426.28;2928329;79;21053;-84
2022/08/23 18:41:24;;;;;;;6.35;5.75;;;;;;;21.82;100.00;100427.00;2940200;78;21026;-83
2022/08/23 18:45:25;;;;;;;7.03;6.20;;;;;;;21.83;100.00;100437.30;2925680;80;21036;-84
2022/08/23 18:49:26;;;;;;;6.92;6.22;;;;;;;21.88;100.00;100432.66;2931735;78;21010;-83
2022/08/23 18:53:28;;;;;;;7.97;5.58;;;;;;;21.85;100.00;100434.41;2931934;77;21014;-84
2022/08/23 18:57:29;;;;;;;6.10;5.50;;;;;;;21.81;100.00;100432.10;2918934;80;21090;-84
2022/08/23 19:01:35;;;;;;;8.60;7.45;;;;;;;21.76;100.00;100427.77;2935130;79;21022;-84
2022/08/23 19:05:36;;;;;;;8.20;6.72;;;;;;;21.75;100.00;100423.92;2929270;80;20996;-83